HIERRO / AEROPUERTO current weather conditions

sailwx.info

Wind at 1 knots

Air temperature 26.0° C
Dewpoint 21.0° C

Last reported at 2014-Oct-25 17:00 UTC.
Time now 2014-Oct-26 07:47 UTC

Location: N 27°49' W 017°53'.
View on Google Maps.

See reports from other nearby stations

  
Tides and Currents Weather Stations Pressure Air Temp Water Temp Dewpoint Dewpoint Depression Visibility Wind Speed Wind Dir Waves Ship Positions
date/time (UTC)wind fromknots sea level pressurealtimeterstation pressurevisibilityair tempwater tempwave heightnotes
2014-Oct-25 17:00 26.0
2014-Oct-25 16:00 170 5 26.0
2014-Oct-25 15:00 170 6 27.0
2014-Oct-25 14:00 170 9 28.0
2014-Oct-25 13:00 180 9 29.0
2014-Oct-25 12:00 200 10 28.0
2014-Oct-25 11:00 190 11 26.0
2014-Oct-25 10:00 180 6 25.0
2014-Oct-25 09:00 24.0
2014-Oct-25 08:00 210 3 23.0
2014-Oct-25 07:00 210 5 23.0
2014-Oct-25 06:00 220 4 23.0
2014-Oct-24 17:00 190 10 27.0
2014-Oct-24 16:00 170 7 28.0
2014-Oct-24 15:00 200 9 29.0
2014-Oct-24 14:00 200 10 30.0
2014-Oct-24 13:00 200 10 30.0
2014-Oct-24 12:00 200 11 31.0
2014-Oct-24 11:50 190 10 30.0
2014-Oct-24 11:00 030 4 27.0
2014-Oct-24 10:00 360 8 26.0
2014-Oct-24 09:00 360 6 26.0
2014-Oct-24 08:00 350 8 25.0
2014-Oct-24 07:00 350 11 25.0